PWSweather.com
Personal Weather Stations
Station Observations
OBSERWACJEMETEO
Skórowo, SkorowoPL 76-230

SkórowoSkorowoPL 76-230

Lat: 54.5030556, Lon: 17.5277777

Elevation: 77

Station Type: WH2080

http://obserwacjemeteo.eu/

High Low Average
Temperature 68.5°F20.3°C 47.5°F8.6°C 55.7°F13.2°C
Dew Point 55.0°F12.8°C 44.0°F6.7°C 47.7°F8.7°C
Winds 3.8 mph 6.1 kmh Calm Calm 1.0 mph SSE1.6 kmh SSE
Wind Gusts 8.3 mph13.4 kmh 0.7 mph1.1 kmh 3.0 mph4.8 kmh
Humidity 93% 50% 75%
Pressure 30.44 in1030.8 mb 30.30 in1026.1 mb -
Precipitation 0.05 in1.3 mm - -
Hour Temp Dew Point Humidity Winds Wind Gusts Pressure Precip Precip Rate Daily Precip Total
12:00 AM 54.9°F12.7°C 47.4°F8.6°C 76% 1.6 mph SSW2.6 kmh SSW 5.4 mph8.7 kmh 30.37 in1028.4 mb 0.00 in0.0 mm 0.00 in0.0 mm 0.00 in0.0 mm
12:10 AM 54.9°F12.7°C 47.8°F8.8°C 77% 0.7 mph SSW1.1 kmh SSW 3.1 mph5.0 kmh 30.37 in1028.4 mb 0.00 in0.0 mm 0.00 in0.0 mm 0.00 in0.0 mm
12:20 AM 54.3°F12.4°C 49.0°F9.4°C 82% 0.7 mph SW1.1 kmh SW 3.1 mph5.0 kmh 30.37 in1028.4 mb 0.00 in0.0 mm 0.00 in0.0 mm 0.00 in0.0 mm
12:30 AM 53.6°F12.0°C 48.6°F9.2°C 83% 0.7 mph SSE1.1 kmh SSE 2.2 mph3.5 kmh 30.37 in1028.4 mb 0.00 in0.0 mm 0.00 in0.0 mm 0.00 in0.0 mm
12:40 AM 53.2°F11.8°C 48.5°F9.2°C 84% 0.7 mph SSW1.1 kmh SSW 1.6 mph2.6 kmh 30.37 in1028.4 mb 0.00 in0.0 mm 0.00 in0.0 mm 0.00 in0.0 mm
12:50 AM 53.1°F11.7°C 48.7°F9.3°C 85% Calm Calm 2.2 mph3.5 kmh 30.38 in1028.8 mb 0.00 in0.0 mm 0.00 in0.0 mm 0.00 in0.0 mm
01:00 AM 52.7°F11.5°C 48.0°F8.9°C 84% 0.7 mph ESE1.1 kmh ESE 1.6 mph2.6 kmh 30.38 in1028.8 mb 0.00 in0.0 mm 0.00 in0.0 mm 0.00 in0.0 mm
01:10 AM 52.5°F11.4°C 47.5°F8.6°C 83% Calm Calm 1.6 mph2.6 kmh 30.38 in1028.8 mb 0.00 in0.0 mm 0.00 in0.0 mm 0.00 in0.0 mm
01:20 AM 52.2°F11.2°C 47.2°F8.4°C 83% Calm Calm 1.6 mph2.6 kmh 30.38 in1028.8 mb 0.00 in0.0 mm 0.00 in0.0 mm 0.00 in0.0 mm
01:30 AM 52.0°F11.1°C 47.3°F8.5°C 84% 0.7 mph WNW1.1 kmh WNW 1.6 mph2.6 kmh 30.38 in1028.8 mb 0.00 in0.0 mm 0.00 in0.0 mm 0.00 in0.0 mm
01:40 AM 52.0°F11.1°C 47.0°F8.3°C 83% Calm Calm 1.6 mph2.6 kmh 30.38 in1028.8 mb 0.00 in0.0 mm 0.00 in0.0 mm 0.00 in0.0 mm
01:50 AM 52.2°F11.2°C 47.2°F8.4°C 83% 0.7 mph WSW1.1 kmh WSW 1.6 mph2.6 kmh 30.38 in1028.8 mb 0.00 in0.0 mm 0.00 in0.0 mm 0.00 in0.0 mm
02:00 AM 52.2°F11.2°C 47.2°F8.4°C 83% 0.7 mph W1.1 kmh W 2.2 mph3.5 kmh 30.39 in1029.1 mb 0.00 in0.0 mm 0.00 in0.0 mm 0.00 in0.0 mm
02:10 AM 52.2°F11.2°C 46.8°F8.2°C 82% Calm Calm 1.6 mph2.6 kmh 30.38 in1028.8 mb 0.00 in0.0 mm 0.00 in0.0 mm 0.00 in0.0 mm
02:20 AM 52.5°F11.4°C 47.5°F8.6°C 83% 0.7 mph NW1.1 kmh NW 1.6 mph2.6 kmh 30.38 in1028.8 mb 0.00 in0.0 mm 0.00 in0.0 mm 0.00 in0.0 mm
02:30 AM 52.7°F11.5°C 47.4°F8.6°C 82% Calm Calm 1.6 mph2.6 kmh 30.38 in1028.8 mb 0.00 in0.0 mm 0.00 in0.0 mm 0.00 in0.0 mm
02:40 AM 52.7°F11.5°C 47.4°F8.6°C 82% Calm Calm 1.6 mph2.6 kmh 30.38 in1028.8 mb 0.00 in0.0 mm 0.00 in0.0 mm 0.00 in0.0 mm
02:50 AM 52.5°F11.4°C 47.2°F8.4°C 82% 0.7 mph WNW1.1 kmh WNW 3.1 mph5.0 kmh 30.38 in1028.8 mb 0.00 in0.0 mm 0.00 in0.0 mm 0.00 in0.0 mm
03:00 AM 52.5°F11.4°C 46.9°F8.3°C 81% 0.7 mph NE1.1 kmh NE 3.1 mph5.0 kmh 30.38 in1028.8 mb 0.00 in0.0 mm 0.00 in0.0 mm 0.00 in0.0 mm
03:10 AM 52.9°F11.6°C 47.2°F8.4°C 81% 0.7 mph WSW1.1 kmh WSW 1.6 mph2.6 kmh 30.38 in1028.8 mb 0.00 in0.0 mm 0.00 in0.0 mm 0.00 in0.0 mm
03:20 AM 52.7°F11.5°C 46.7°F8.2°C 80% 0.7 mph N1.1 kmh N 2.2 mph3.5 kmh 30.37 in1028.4 mb 0.00 in0.0 mm 0.00 in0.0 mm 0.00 in0.0 mm
03:30 AM 52.3°F11.3°C 46.4°F8.0°C 80% 1.6 mph W2.6 kmh W 3.1 mph5.0 kmh 30.38 in1028.8 mb 0.00 in0.0 mm 0.00 in0.0 mm 0.00 in0.0 mm
03:40 AM 52.2°F11.2°C 46.2°F7.9°C 80% Calm Calm 3.1 mph5.0 kmh 30.37 in1028.4 mb 0.00 in0.0 mm 0.00 in0.0 mm 0.00 in0.0 mm
03:50 AM 50.9°F10.5°C 45.0°F7.2°C 80% Calm Calm 1.6 mph2.6 kmh 30.38 in1028.8 mb 0.00 in0.0 mm 0.00 in0.0 mm 0.00 in0.0 mm
04:00 AM 49.6°F9.8°C 44.1°F6.7°C 81% Calm Calm 0.7 mph1.1 kmh 30.38 in1028.8 mb 0.00 in0.0 mm 0.00 in0.0 mm 0.00 in0.0 mm
04:10 AM 48.9°F9.4°C 44.0°F6.7°C 83% Calm Calm 0.7 mph1.1 kmh 30.38 in1028.8 mb 0.00 in0.0 mm 0.00 in0.0 mm 0.00 in0.0 mm
04:20 AM 48.9°F9.4°C 44.3°F6.8°C 84% 0.7 mph W1.1 kmh W 1.6 mph2.6 kmh 30.38 in1028.8 mb 0.00 in0.0 mm 0.00 in0.0 mm 0.00 in0.0 mm
04:30 AM 48.9°F9.4°C 44.9°F7.2°C 86% 0.7 mph SW1.1 kmh SW 1.6 mph2.6 kmh 30.38 in1028.8 mb 0.00 in0.0 mm 0.00 in0.0 mm 0.00 in0.0 mm
04:40 AM 49.1°F9.5°C 45.4°F7.4°C 87% 0.7 mph NE1.1 kmh NE 1.6 mph2.6 kmh 30.38 in1028.8 mb 0.00 in0.0 mm 0.00 in0.0 mm 0.00 in0.0 mm
04:50 AM 49.1°F9.5°C 45.4°F7.4°C 87% Calm Calm 1.6 mph2.6 kmh 30.39 in1029.1 mb 0.00 in0.0 mm 0.00 in0.0 mm 0.00 in0.0 mm
05:00 AM 49.1°F9.5°C 45.7°F7.6°C 88% Calm Calm 0.7 mph1.1 kmh 30.40 in1029.5 mb 0.00 in0.0 mm 0.00 in0.0 mm 0.00 in0.0 mm
05:10 AM 48.9°F9.4°C 45.8°F7.7°C 89% Calm Calm 0.7 mph1.1 kmh 30.39 in1029.1 mb 0.00 in0.0 mm 0.00 in0.0 mm 0.00 in0.0 mm
05:20 AM 48.6°F9.2°C 45.8°F7.7°C 90% Calm Calm 0.7 mph1.1 kmh 30.39 in1029.1 mb 0.00 in0.0 mm 0.00 in0.0 mm 0.00 in0.0 mm
05:30 AM 48.9°F9.4°C 46.1°F7.8°C 90% Calm Calm 1.6 mph2.6 kmh 30.39 in1029.1 mb 0.00 in0.0 mm 0.00 in0.0 mm 0.01 in0.3 mm
05:40 AM 50.2°F10.1°C 48.0°F8.9°C 92% Calm Calm 2.2 mph3.5 kmh 30.40 in1029.5 mb 0.01 in0.3 mm 0.06 in1.5 mm 0.01 in0.3 mm
05:50 AM 50.9°F10.5°C 49.0°F9.4°C 93% 0.7 mph WSW1.1 kmh WSW 2.2 mph3.5 kmh 30.40 in1029.5 mb 0.01 in0.3 mm 0.00 in0.0 mm 0.01 in0.3 mm
06:00 AM 51.6°F10.9°C 49.7°F9.8°C 93% 0.7 mph W1.1 kmh W 2.2 mph3.5 kmh 30.40 in1029.5 mb 0.01 in0.3 mm 0.00 in0.0 mm 0.01 in0.3 mm
06:10 AM 52.0°F11.1°C 49.7°F9.8°C 92% 0.7 mph NE1.1 kmh NE 3.1 mph5.0 kmh 30.40 in1029.5 mb 0.01 in0.3 mm 0.00 in0.0 mm 0.01 in0.3 mm
06:20 AM 52.2°F11.2°C 49.6°F9.8°C 91% 0.7 mph WSW1.1 kmh WSW 3.1 mph5.0 kmh 30.41 in1029.8 mb 0.01 in0.3 mm 0.00 in0.0 mm 0.01 in0.3 mm
06:30 AM 52.9°F11.6°C 50.0°F10.0°C 90% 1.6 mph NNW2.6 kmh NNW 2.2 mph3.5 kmh 30.41 in1029.8 mb 0.01 in0.3 mm 0.00 in0.0 mm 0.01 in0.3 mm
06:40 AM 53.4°F11.9°C 50.3°F10.2°C 89% 0.7 mph WSW1.1 kmh WSW 4.5 mph7.2 kmh 30.40 in1029.5 mb 0.00 in0.0 mm 0.00 in0.0 mm 0.01 in0.3 mm
06:50 AM 54.7°F12.6°C 49.9°F9.9°C 84% 0.7 mph WNW1.1 kmh WNW 3.1 mph5.0 kmh 30.40 in1029.5 mb 0.00 in0.0 mm 0.00 in0.0 mm 0.01 in0.3 mm
07:00 AM 55.0°F12.8°C 49.7°F9.8°C 82% 0.7 mph WNW1.1 kmh WNW 2.2 mph3.5 kmh 30.40 in1029.5 mb 0.00 in0.0 mm 0.00 in0.0 mm 0.01 in0.3 mm
07:10 AM 54.7°F12.6°C 49.0°F9.4°C 81% 0.7 mph NW1.1 kmh NW 2.2 mph3.5 kmh 30.41 in1029.8 mb 0.00 in0.0 mm 0.00 in0.0 mm 0.02 in0.5 mm
07:20 AM 54.3°F12.4°C 49.6°F9.8°C 84% 0.7 mph SE1.1 kmh SE 3.1 mph5.0 kmh 30.41 in1029.8 mb 0.00 in0.0 mm 0.00 in0.0 mm 0.02 in0.5 mm
07:30 AM 54.9°F12.7°C 49.5°F9.7°C 82% 1.6 mph W2.6 kmh W 2.2 mph3.5 kmh 30.41 in1029.8 mb 0.00 in0.0 mm 0.00 in0.0 mm 0.02 in0.5 mm
07:40 AM 54.7°F12.6°C 49.0°F9.4°C 81% 1.6 mph NW2.6 kmh NW 2.2 mph3.5 kmh 30.41 in1029.8 mb 0.00 in0.0 mm 0.00 in0.0 mm 0.02 in0.5 mm
07:50 AM 57.6°F14.2°C 52.1°F11.2°C 82% 0.7 mph WNW1.1 kmh WNW 3.8 mph6.1 kmh 30.42 in1030.1 mb 0.00 in0.0 mm 0.00 in0.0 mm 0.02 in0.5 mm
08:00 AM 61.0°F16.1°C 53.4°F11.9°C 76% 0.7 mph WNW1.1 kmh WNW 3.1 mph5.0 kmh 30.41 in1029.8 mb 0.00 in0.0 mm 0.00 in0.0 mm 0.02 in0.5 mm
08:10 AM 62.4°F16.9°C 52.9°F11.6°C 71% 0.7 mph ESE1.1 kmh ESE 2.2 mph3.5 kmh 30.41 in1029.8 mb 0.00 in0.0 mm 0.00 in0.0 mm 0.02 in0.5 mm
08:20 AM 63.7°F17.6°C 52.1°F11.2°C 66% 1.6 mph SW2.6 kmh SW 5.4 mph8.7 kmh 30.42 in1030.1 mb 0.00 in0.0 mm 0.00 in0.0 mm 0.02 in0.5 mm
08:30 AM 64.8°F18.2°C 51.9°F11.1°C 63% 2.2 mph SSW3.5 kmh SSW 4.5 mph7.2 kmh 30.41 in1029.8 mb 0.00 in0.0 mm 0.00 in0.0 mm 0.02 in0.5 mm
08:40 AM 59.9°F15.5°C 48.9°F9.4°C 67% 3.8 mph WSW6.1 kmh WSW 7.6 mph12.2 kmh 30.41 in1029.8 mb 0.00 in0.0 mm 0.00 in0.0 mm 0.02 in0.5 mm
08:50 AM 60.1°F15.6°C 50.3°F10.2°C 70% 3.1 mph SSW5.0 kmh SSW 5.4 mph8.7 kmh 30.42 in1030.1 mb 0.00 in0.0 mm 0.00 in0.0 mm 0.02 in0.5 mm
09:00 AM 60.3°F15.7°C 50.8°F10.4°C 71% 1.6 mph S2.6 kmh S 5.4 mph8.7 kmh 30.43 in1030.5 mb 0.00 in0.0 mm 0.00 in0.0 mm 0.02 in0.5 mm
09:10 AM 59.5°F15.3°C 49.8°F9.9°C 70% 2.2 mph SSE3.5 kmh SSE 6.9 mph11.1 kmh 30.44 in1030.8 mb 0.00 in0.0 mm 0.00 in0.0 mm 0.02 in0.5 mm
09:20 AM 55.9°F13.3°C 48.8°F9.3°C 77% 0.7 mph SW1.1 kmh SW 4.5 mph7.2 kmh 30.43 in1030.5 mb 0.03 in0.8 mm 0.18 in4.6 mm 0.05 in1.3 mm
09:30 AM 57.6°F14.2°C 52.4°F11.3°C 83% 0.7 mph SSW1.1 kmh SSW 2.2 mph3.5 kmh 30.43 in1030.5 mb 0.03 in0.8 mm 0.00 in0.0 mm 0.05 in1.3 mm
09:40 AM 61.9°F16.6°C 55.0°F12.8°C 78% 3.1 mph SW5.0 kmh SW 3.8 mph6.1 kmh 30.43 in1030.5 mb 0.03 in0.8 mm 0.00 in0.0 mm 0.05 in1.3 mm
09:50 AM 58.1°F14.5°C 49.5°F9.7°C 73% 1.6 mph WSW2.6 kmh WSW 5.4 mph8.7 kmh 30.44 in1030.8 mb 0.03 in0.8 mm 0.00 in0.0 mm 0.05 in1.3 mm
10:00 AM 59.4°F15.2°C 52.5°F11.4°C 78% 1.6 mph S2.6 kmh S 4.5 mph7.2 kmh 30.44 in1030.8 mb 0.03 in0.8 mm 0.00 in0.0 mm 0.05 in1.3 mm
10:10 AM 63.5°F17.5°C 53.2°F11.8°C 69% 2.2 mph SSW3.5 kmh SSW 5.4 mph8.7 kmh 30.44 in1030.8 mb 0.03 in0.8 mm 0.00 in0.0 mm 0.05 in1.3 mm
10:20 AM 66.4°F19.1°C 53.4°F11.9°C 63% 1.6 mph SW2.6 kmh SW 5.4 mph8.7 kmh 30.44 in1030.8 mb 0.00 in0.0 mm 0.00 in0.0 mm 0.05 in1.3 mm
10:30 AM 63.9°F17.7°C 50.6°F10.3°C 62% 3.1 mph NW5.0 kmh NW 8.3 mph13.4 kmh 30.43 in1030.5 mb 0.00 in0.0 mm 0.00 in0.0 mm 0.05 in1.3 mm
10:40 AM 61.2°F16.2°C 51.3°F10.7°C 70% 1.6 mph S2.6 kmh S 6.0 mph9.7 kmh 30.44 in1030.8 mb 0.00 in0.0 mm 0.00 in0.0 mm 0.05 in1.3 mm
10:50 AM 61.9°F16.6°C 50.4°F10.2°C 66% 1.6 mph SW2.6 kmh SW 6.0 mph9.7 kmh 30.44 in1030.8 mb 0.00 in0.0 mm 0.00 in0.0 mm 0.05 in1.3 mm
11:00 AM 59.2°F15.1°C 49.4°F9.7°C 70% 0.7 mph SW1.1 kmh SW 4.5 mph7.2 kmh 30.44 in1030.8 mb 0.00 in0.0 mm 0.00 in0.0 mm 0.05 in1.3 mm
11:10 AM 62.1°F16.7°C 53.7°F12.1°C 74% 1.6 mph S2.6 kmh S 2.2 mph3.5 kmh 30.44 in1030.8 mb 0.00 in0.0 mm 0.00 in0.0 mm 0.05 in1.3 mm
11:20 AM 66.6°F19.2°C 52.7°F11.5°C 61% 2.2 mph NNW3.5 kmh NNW 4.5 mph7.2 kmh 30.43 in1030.5 mb 0.00 in0.0 mm 0.00 in0.0 mm 0.05 in1.3 mm
11:30 AM 67.6°F19.8°C 52.4°F11.3°C 58% 1.6 mph S2.6 kmh S 4.5 mph7.2 kmh 30.43 in1030.5 mb 0.00 in0.0 mm 0.00 in0.0 mm 0.05 in1.3 mm
11:40 AM 65.1°F18.4°C 47.6°F8.7°C 53% 2.2 mph SW3.5 kmh SW 6.9 mph11.1 kmh 30.43 in1030.5 mb 0.00 in0.0 mm 0.00 in0.0 mm 0.05 in1.3 mm
11:50 AM 61.7°F16.5°C 49.8°F9.9°C 65% 1.6 mph SSW2.6 kmh SSW 3.8 mph6.1 kmh 30.43 in1030.5 mb 0.00 in0.0 mm 0.00 in0.0 mm 0.05 in1.3 mm
12:00 PM 64.8°F18.2°C 51.0°F10.6°C 61% 2.2 mph SW3.5 kmh SW 5.4 mph8.7 kmh 30.43 in1030.5 mb 0.00 in0.0 mm 0.00 in0.0 mm 0.05 in1.3 mm
12:10 PM 68.5°F20.3°C 51.3°F10.7°C 54% 1.6 mph WSW2.6 kmh WSW 3.8 mph6.1 kmh 30.42 in1030.1 mb 0.00 in0.0 mm 0.00 in0.0 mm 0.05 in1.3 mm
12:20 PM 65.8°F18.8°C 46.7°F8.2°C 50% 2.2 mph W3.5 kmh W 3.8 mph6.1 kmh 30.41 in1029.8 mb 0.00 in0.0 mm 0.00 in0.0 mm 0.05 in1.3 mm
12:30 PM 65.3°F18.5°C 48.2°F9.0°C 54% 0.7 mph SSW1.1 kmh SSW 6.0 mph9.7 kmh 30.41 in1029.8 mb 0.00 in0.0 mm 0.00 in0.0 mm 0.05 in1.3 mm
12:40 PM 66.0°F18.9°C 48.4°F9.1°C 53% 2.2 mph SSE3.5 kmh SSE 4.5 mph7.2 kmh 30.41 in1029.8 mb 0.00 in0.0 mm 0.00 in0.0 mm 0.05 in1.3 mm
12:50 PM 68.5°F20.3°C 49.7°F9.8°C 51% 1.6 mph SW2.6 kmh SW 4.5 mph7.2 kmh 30.41 in1029.8 mb 0.00 in0.0 mm 0.00 in0.0 mm 0.05 in1.3 mm
01:00 PM 65.7°F18.7°C 47.6°F8.7°C 52% 2.2 mph SSW3.5 kmh SSW 3.8 mph6.1 kmh 30.42 in1030.1 mb 0.00 in0.0 mm 0.00 in0.0 mm 0.05 in1.3 mm
01:10 PM 67.1°F19.5°C 49.4°F9.7°C 53% 2.2 mph WSW3.5 kmh WSW 3.8 mph6.1 kmh 30.42 in1030.1 mb 0.00 in0.0 mm 0.00 in0.0 mm 0.05 in1.3 mm
01:20 PM 64.8°F18.2°C 48.7°F9.3°C 56% 2.2 mph S3.5 kmh S 4.5 mph7.2 kmh 30.41 in1029.8 mb 0.00 in0.0 mm 0.00 in0.0 mm 0.05 in1.3 mm
01:30 PM 68.0°F20.0°C 50.3°F10.2°C 53% 1.6 mph S2.6 kmh S 3.8 mph6.1 kmh 30.42 in1030.1 mb 0.00 in0.0 mm 0.00 in0.0 mm 0.05 in1.3 mm
01:40 PM 67.3°F19.6°C 48.6°F9.2°C 51% 3.1 mph WSW5.0 kmh WSW 5.4 mph8.7 kmh 30.42 in1030.1 mb 0.00 in0.0 mm 0.00 in0.0 mm 0.05 in1.3 mm
01:50 PM 65.1°F18.4°C 47.6°F8.7°C 53% 1.6 mph SSW2.6 kmh SSW 4.5 mph7.2 kmh 30.42 in1030.1 mb 0.00 in0.0 mm 0.00 in0.0 mm 0.05 in1.3 mm
02:00 PM 63.7°F17.6°C 49.6°F9.8°C 60% 3.1 mph WSW5.0 kmh WSW 4.5 mph7.2 kmh 30.43 in1030.5 mb 0.00 in0.0 mm 0.00 in0.0 mm 0.05 in1.3 mm
02:10 PM 67.1°F19.5°C 49.4°F9.7°C 53% 1.6 mph ENE2.6 kmh ENE 5.4 mph8.7 kmh 30.43 in1030.5 mb 0.00 in0.0 mm 0.00 in0.0 mm 0.05 in1.3 mm
02:20 PM 66.7°F19.3°C 48.1°F8.9°C 51% 3.1 mph SSW5.0 kmh SSW 5.4 mph8.7 kmh 30.42 in1030.1 mb 0.00 in0.0 mm 0.00 in0.0 mm 0.05 in1.3 mm
02:30 PM 64.6°F18.1°C 46.6°F8.1°C 52% 2.2 mph SW3.5 kmh SW 6.9 mph11.1 kmh 30.42 in1030.1 mb 0.00 in0.0 mm 0.00 in0.0 mm 0.05 in1.3 mm
02:40 PM 64.9°F18.3°C 46.9°F8.3°C 52% 2.2 mph SW3.5 kmh SW 4.5 mph7.2 kmh 30.42 in1030.1 mb 0.00 in0.0 mm 0.00 in0.0 mm 0.05 in1.3 mm
02:50 PM 62.4°F16.9°C 47.0°F8.3°C 57% 2.2 mph SSE3.5 kmh SSE 6.0 mph9.7 kmh 30.42 in1030.1 mb 0.00 in0.0 mm 0.00 in0.0 mm 0.05 in1.3 mm
03:00 PM 60.3°F15.7°C 48.0°F8.9°C 64% 1.6 mph SSW2.6 kmh SSW 4.5 mph7.2 kmh 30.41 in1029.8 mb 0.00 in0.0 mm 0.00 in0.0 mm 0.05 in1.3 mm
03:10 PM 59.7°F15.4°C 48.4°F9.1°C 66% 1.6 mph WSW2.6 kmh WSW 3.8 mph6.1 kmh 30.41 in1029.8 mb 0.00 in0.0 mm 0.00 in0.0 mm 0.05 in1.3 mm
03:20 PM 62.6°F17.0°C 51.1°F10.6°C 66% Calm Calm 3.8 mph6.1 kmh 30.40 in1029.5 mb 0.00 in0.0 mm 0.00 in0.0 mm 0.05 in1.3 mm
03:30 PM 62.8°F17.1°C 48.7°F9.3°C 60% 2.2 mph S3.5 kmh S 5.4 mph8.7 kmh 30.41 in1029.8 mb 0.00 in0.0 mm 0.00 in0.0 mm 0.05 in1.3 mm
03:40 PM 60.8°F16.0°C 45.9°F7.7°C 58% 0.7 mph SSE1.1 kmh SSE 5.4 mph8.7 kmh 30.40 in1029.5 mb 0.00 in0.0 mm 0.00 in0.0 mm 0.05 in1.3 mm
03:50 PM 59.0°F15.0°C 46.4°F8.0°C 63% 1.6 mph NNW2.6 kmh NNW 4.5 mph7.2 kmh 30.40 in1029.5 mb 0.00 in0.0 mm 0.00 in0.0 mm 0.05 in1.3 mm
04:00 PM 58.6°F14.8°C 47.7°F8.7°C 67% 0.7 mph SSW1.1 kmh SSW 3.8 mph6.1 kmh 30.40 in1029.5 mb 0.00 in0.0 mm 0.00 in0.0 mm 0.05 in1.3 mm
04:10 PM 58.6°F14.8°C 46.9°F8.3°C 65% 0.7 mph WSW1.1 kmh WSW 4.5 mph7.2 kmh 30.39 in1029.1 mb 0.00 in0.0 mm 0.00 in0.0 mm 0.05 in1.3 mm
04:20 PM 58.1°F14.5°C 46.8°F8.2°C 66% 0.7 mph S1.1 kmh S 4.5 mph7.2 kmh 30.38 in1028.8 mb 0.00 in0.0 mm 0.00 in0.0 mm 0.05 in1.3 mm
04:30 PM 58.1°F14.5°C 47.2°F8.4°C 67% 1.6 mph W2.6 kmh W 3.8 mph6.1 kmh 30.38 in1028.8 mb 0.00 in0.0 mm 0.00 in0.0 mm 0.05 in1.3 mm
04:40 PM 57.9°F14.4°C 47.0°F8.3°C 67% 1.6 mph S2.6 kmh S 6.0 mph9.7 kmh 30.38 in1028.8 mb 0.00 in0.0 mm 0.00 in0.0 mm 0.05 in1.3 mm
04:50 PM 57.7°F14.3°C 46.9°F8.3°C 67% 1.6 mph SW2.6 kmh SW 3.8 mph6.1 kmh 30.38 in1028.8 mb 0.00 in0.0 mm 0.00 in0.0 mm 0.05 in1.3 mm
05:00 PM 57.4°F14.1°C 46.1°F7.8°C 66% 1.6 mph NW2.6 kmh NW 4.5 mph7.2 kmh 30.39 in1029.1 mb 0.00 in0.0 mm 0.00 in0.0 mm 0.05 in1.3 mm
05:10 PM 57.0°F13.9°C 45.4°F7.4°C 65% 3.1 mph N5.0 kmh N 6.0 mph9.7 kmh 30.38 in1028.8 mb 0.00 in0.0 mm 0.00 in0.0 mm 0.05 in1.3 mm
05:20 PM 56.7°F13.7°C 45.8°F7.7°C 67% 0.7 mph WSW1.1 kmh WSW 4.5 mph7.2 kmh 30.39 in1029.1 mb 0.00 in0.0 mm 0.00 in0.0 mm 0.05 in1.3 mm
05:30 PM 55.8°F13.2°C 45.8°F7.7°C 69% Calm Calm 3.1 mph5.0 kmh 30.38 in1028.8 mb 0.00 in0.0 mm 0.00 in0.0 mm 0.05 in1.3 mm
05:40 PM 55.6°F13.1°C 46.0°F7.8°C 70% 0.7 mph W1.1 kmh W 3.8 mph6.1 kmh 30.37 in1028.4 mb 0.00 in0.0 mm 0.00 in0.0 mm 0.05 in1.3 mm
05:50 PM 55.2°F12.9°C 45.6°F7.6°C 70% 1.6 mph WSW2.6 kmh WSW 3.1 mph5.0 kmh 30.37 in1028.4 mb 0.00 in0.0 mm 0.00 in0.0 mm 0.05 in1.3 mm
06:00 PM 55.0°F12.8°C 45.8°F7.7°C 71% 1.6 mph NW2.6 kmh NW 2.2 mph3.5 kmh 30.36 in1028.1 mb 0.00 in0.0 mm 0.00 in0.0 mm 0.05 in1.3 mm
06:10 PM 54.9°F12.7°C 45.6°F7.6°C 71% Calm Calm 3.8 mph6.1 kmh 30.37 in1028.4 mb 0.00 in0.0 mm 0.00 in0.0 mm 0.05 in1.3 mm
06:20 PM 54.5°F12.5°C 45.7°F7.6°C 72% 1.6 mph NE2.6 kmh NE 3.1 mph5.0 kmh 30.36 in1028.1 mb 0.00 in0.0 mm 0.00 in0.0 mm 0.05 in1.3 mm
06:30 PM 54.0°F12.2°C 46.2°F7.9°C 75% 0.7 mph N1.1 kmh N 1.6 mph2.6 kmh 30.36 in1028.1 mb 0.00 in0.0 mm 0.00 in0.0 mm 0.05 in1.3 mm
06:40 PM 52.7°F11.5°C 45.4°F7.4°C 76% Calm Calm 0.7 mph1.1 kmh 30.36 in1028.1 mb 0.00 in0.0 mm 0.00 in0.0 mm 0.05 in1.3 mm
06:50 PM 51.6°F10.9°C 45.3°F7.4°C 79% Calm Calm 2.2 mph3.5 kmh 30.36 in1028.1 mb 0.00 in0.0 mm 0.00 in0.0 mm 0.05 in1.3 mm
07:00 PM 51.6°F10.9°C 45.7°F7.6°C 80% Calm Calm 2.2 mph3.5 kmh 30.36 in1028.1 mb 0.00 in0.0 mm 0.00 in0.0 mm 0.05 in1.3 mm
07:10 PM 51.8°F11.0°C 46.2°F7.9°C 81% 0.7 mph E1.1 kmh E 1.6 mph2.6 kmh 30.35 in1027.8 mb 0.00 in0.0 mm 0.00 in0.0 mm 0.05 in1.3 mm
07:20 PM 51.8°F11.0°C 45.8°F7.7°C 80% Calm Calm 2.2 mph3.5 kmh 30.36 in1028.1 mb 0.00 in0.0 mm 0.00 in0.0 mm 0.05 in1.3 mm
07:30 PM 51.3°F10.7°C 45.3°F7.4°C 80% Calm Calm 1.6 mph2.6 kmh 30.35 in1027.8 mb 0.00 in0.0 mm 0.00 in0.0 mm 0.05 in1.3 mm
07:40 PM 50.7°F10.4°C 45.1°F7.3°C 81% Calm Calm 0.7 mph1.1 kmh 30.36 in1028.1 mb 0.00 in0.0 mm 0.00 in0.0 mm 0.05 in1.3 mm
07:50 PM 50.2°F10.1°C 44.9°F7.2°C 82% Calm Calm 1.6 mph2.6 kmh 30.36 in1028.1 mb 0.00 in0.0 mm 0.00 in0.0 mm 0.05 in1.3 mm
08:00 PM 50.0°F10.0°C 45.0°F7.2°C 83% 0.7 mph W1.1 kmh W 1.6 mph2.6 kmh 30.35 in1027.8 mb 0.00 in0.0 mm 0.00 in0.0 mm 0.05 in1.3 mm
08:10 PM 50.0°F10.0°C 45.4°F7.4°C 84% 0.7 mph NE1.1 kmh NE 1.6 mph2.6 kmh 30.35 in1027.8 mb 0.00 in0.0 mm 0.00 in0.0 mm 0.05 in1.3 mm
08:20 PM 50.0°F10.0°C 45.4°F7.4°C 84% Calm Calm 1.6 mph2.6 kmh 30.35 in1027.8 mb 0.00 in0.0 mm 0.00 in0.0 mm 0.05 in1.3 mm
08:30 PM 49.8°F9.9°C 45.2°F7.3°C 84% Calm Calm 2.2 mph3.5 kmh 30.35 in1027.8 mb 0.00 in0.0 mm 0.00 in0.0 mm 0.05 in1.3 mm
08:40 PM 49.6°F9.8°C 45.0°F7.2°C 84% Calm Calm 0.7 mph1.1 kmh 30.35 in1027.8 mb 0.00 in0.0 mm 0.00 in0.0 mm 0.05 in1.3 mm
08:50 PM 49.6°F9.8°C 45.3°F7.4°C 85% Calm Calm 1.6 mph2.6 kmh 30.35 in1027.8 mb 0.00 in0.0 mm 0.00 in0.0 mm 0.05 in1.3 mm
09:00 PM 49.5°F9.7°C 45.1°F7.3°C 85% Calm Calm 0.7 mph1.1 kmh 30.35 in1027.8 mb 0.00 in0.0 mm 0.00 in0.0 mm 0.05 in1.3 mm
09:10 PM 49.1°F9.5°C 44.8°F7.1°C 85% Calm Calm 1.6 mph2.6 kmh 30.34 in1027.4 mb 0.00 in0.0 mm 0.00 in0.0 mm 0.05 in1.3 mm
09:20 PM 48.7°F9.3°C 44.7°F7.1°C 86% 0.7 mph ESE1.1 kmh ESE 1.6 mph2.6 kmh 30.33 in1027.1 mb 0.00 in0.0 mm 0.00 in0.0 mm 0.05 in1.3 mm
09:30 PM 48.6°F9.2°C 44.6°F7.0°C 86% Calm Calm 1.6 mph2.6 kmh 30.33 in1027.1 mb 0.00 in0.0 mm 0.00 in0.0 mm 0.05 in1.3 mm
09:40 PM 48.6°F9.2°C 44.9°F7.2°C 87% 0.7 mph SSE1.1 kmh SSE 2.2 mph3.5 kmh 30.34 in1027.4 mb 0.00 in0.0 mm 0.00 in0.0 mm 0.05 in1.3 mm
09:50 PM 48.4°F9.1°C 44.7°F7.1°C 87% 0.7 mph NNE1.1 kmh NNE 3.1 mph5.0 kmh 30.32 in1026.8 mb 0.00 in0.0 mm 0.00 in0.0 mm 0.05 in1.3 mm
10:00 PM 48.2°F9.0°C 44.8°F7.1°C 88% Calm Calm 1.6 mph2.6 kmh 30.32 in1026.8 mb 0.00 in0.0 mm 0.00 in0.0 mm 0.05 in1.3 mm
10:10 PM 48.4°F9.1°C 45.3°F7.4°C 89% 0.7 mph E1.1 kmh E 1.6 mph2.6 kmh 30.33 in1027.1 mb 0.00 in0.0 mm 0.00 in0.0 mm 0.05 in1.3 mm
10:20 PM 48.2°F9.0°C 45.1°F7.3°C 89% 0.7 mph SE1.1 kmh SE 2.2 mph3.5 kmh 30.32 in1026.8 mb 0.00 in0.0 mm 0.00 in0.0 mm 0.05 in1.3 mm
10:30 PM 48.0°F8.9°C 44.9°F7.2°C 89% 0.7 mph E1.1 kmh E 2.2 mph3.5 kmh 30.32 in1026.8 mb 0.00 in0.0 mm 0.00 in0.0 mm 0.05 in1.3 mm
10:40 PM 47.7°F8.7°C 44.6°F7.0°C 89% 0.7 mph E1.1 kmh E 2.2 mph3.5 kmh 30.32 in1026.8 mb 0.00 in0.0 mm 0.00 in0.0 mm 0.05 in1.3 mm
10:50 PM 47.7°F8.7°C 44.6°F7.0°C 89% 1.6 mph E2.6 kmh E 2.2 mph3.5 kmh 30.32 in1026.8 mb 0.00 in0.0 mm 0.00 in0.0 mm 0.05 in1.3 mm
11:00 PM 47.8°F8.8°C 45.1°F7.3°C 90% 0.7 mph E1.1 kmh E 2.2 mph3.5 kmh 30.31 in1026.4 mb 0.00 in0.0 mm 0.00 in0.0 mm 0.04 in1.0 mm
11:10 PM 47.8°F8.8°C 45.1°F7.3°C 90% 1.6 mph E2.6 kmh E 2.2 mph3.5 kmh 30.31 in1026.4 mb 0.00 in0.0 mm 0.00 in0.0 mm 0.04 in1.0 mm
11:20 PM 47.8°F8.8°C 45.1°F7.3°C 90% 0.7 mph E1.1 kmh E 2.2 mph3.5 kmh 30.30 in1026.1 mb 0.00 in0.0 mm 0.00 in0.0 mm 0.04 in1.0 mm
11:30 PM 47.7°F8.7°C 44.9°F7.2°C 90% 0.7 mph ESE1.1 kmh ESE 2.2 mph3.5 kmh 30.30 in1026.1 mb 0.00 in0.0 mm 0.00 in0.0 mm 0.04 in1.0 mm
11:40 PM 47.5°F8.6°C 44.7°F7.1°C 90% 0.7 mph SE1.1 kmh SE 1.6 mph2.6 kmh 30.30 in1026.1 mb 0.00 in0.0 mm 0.00 in0.0 mm 0.04 in1.0 mm
11:50 PM 47.7°F8.7°C 44.9°F7.2°C 90% 0.7 mph ENE1.1 kmh ENE 3.1 mph5.0 kmh 30.30 in1026.1 mb 0.00 in0.0 mm 0.00 in0.0 mm 0.04 in1.0 mm